Time;durP1;ratioP1;P1;durP2;ratioP2;P2;SDS_P1;SDS_P2;PMS_P1;PMS_P2;Temp;Humidity;BMP_temperature;BMP_pressure;BME280_temperature;BME280_humidity;BME280_pressure;Samples;Min_cycle;Max_cycle;Signal;HPM_P1;HPM_P2
2022/08/08 00:00:05;;;;;;;10.77;6.07;;;;;;;;;;5097590;28;20046;-74
2022/08/08 00:02:40;;;;;;;8.55;5.72;;;;;;;;;;5114701;28;20044;-75
2022/08/08 00:05:06;;;;;;;9.05;6.13;;;;;;;;;;5107747;28;20047;-75
2022/08/08 00:07:50;;;;;;;8.18;5.38;;;;;;;;;;5111709;28;20413;-75
2022/08/08 00:10:31;;;;;;;10.60;6.03;;;;;;;;;;5098459;28;20036;-75
2022/08/08 00:13:00;;;;;;;8.13;5.78;;;;;;;;;;5099682;28;20083;-75
2022/08/08 00:15:28;;;;;;;10.38;5.90;;;;;;;;;;5103553;28;20044;-75
2022/08/08 00:18:00;;;;;;;9.48;6.07;;;;;;;;;;5111290;28;20095;-75
2022/08/08 00:20:30;;;;;;;12.35;7.03;;;;;;;;;;5090992;28;20094;-74
2022/08/08 00:22:59;;;;;;;11.38;7.38;;;;;;;;;;5100401;28;20036;-76
2022/08/08 00:25:28;;;;;;;12.02;7.30;;;;;;;;;;5100485;28;20521;-75
2022/08/08 00:27:56;;;;;;;10.55;6.72;;;;;;;;;;5115512;28;20046;-75
2022/08/08 00:30:22;;;;;;;10.13;7.07;;;;;;;;;;5103956;28;20510;-75
2022/08/08 00:32:54;;;;;;;11.85;8.00;;;;;;;;;;5110860;28;20536;-75
2022/08/08 00:35:26;;;;;;;10.27;7.43;;;;;;;;;;5114236;28;20039;-74
2022/08/08 00:37:55;;;;;;;10.93;7.60;;;;;;;;;;5116378;28;20044;-74
2022/08/08 00:40:27;;;;;;;11.13;7.82;;;;;;;;;;5107067;28;20067;-75
2022/08/08 00:43:12;;;;;;;12.35;7.07;;;;;;;;;;5117059;28;20052;-74
2022/08/08 00:45:38;;;;;;;10.23;6.65;;;;;;;;;;5101095;28;20047;-76
2022/08/08 00:48:16;;;;;;;11.98;7.13;;;;;;;;;;5115774;28;20039;-75
2022/08/08 00:51:09;;;;;;;11.73;8.07;;;;;;;;;;5109859;28;20043;-75
2022/08/08 00:53:38;;;;;;;12.63;8.13;;;;;;;;;;5110833;28;20032;-74
2022/08/08 00:56:18;;;;;;;8.27;6.15;;;;;;;;;;5109752;28;20047;-75
2022/08/08 00:59:03;;;;;;;10.25;5.32;;;;;;;;;;5105378;28;20099;-75
2022/08/08 01:01:33;;;;;;;6.03;3.80;;;;;;;;;;5106444;28;20047;-75
2022/08/08 01:04:35;;;;;;;6.15;3.38;;;;;;;;;;5112997;28;20409;-74
2022/08/08 01:07:19;;;;;;;6.22;2.70;;;;;;;;;;5018592;28;20050;-74
2022/08/08 01:09:49;;;;;;;4.72;2.80;;;;;;;;;;5022050;28;21509;-76
2022/08/08 01:12:21;;;;;;;7.38;3.97;;;;;;;;;;5035714;28;20056;-75
2022/08/08 01:14:49;;;;;;;6.03;3.53;;;;;;;;;;5029809;28;20046;-75
2022/08/08 01:17:21;;;;;;;7.93;4.00;;;;;;;;;;5033431;28;20487;-74
2022/08/08 01:20:02;;;;;;;8.27;5.07;;;;;;;;;;5021054;28;20081;-76
2022/08/08 01:22:40;;;;;;;7.80;4.57;;;;;;;;;;5023945;28;20058;-76
2022/08/08 01:25:36;;;;;;;7.85;4.20;;;;;;;;;;5027286;28;20056;-75
2022/08/08 01:28:14;;;;;;;8.50;4.95;;;;;;;;;;5026449;28;20050;-74
2022/08/08 01:30:56;;;;;;;8.23;5.47;;;;;;;;;;5025619;28;20037;-74
2022/08/08 01:33:24;;;;;;;8.75;4.90;;;;;;;;;;5027291;28;20534;-74
2022/08/08 01:36:07;;;;;;;10.95;6.35;;;;;;;;;;5009632;28;20049;-75
2022/08/08 01:38:48;;;;;;;10.55;7.18;;;;;;;;;;5032153;28;20053;-75
2022/08/08 01:41:26;;;;;;;8.80;5.60;;;;;;;;;;5078584;28;20052;-75
2022/08/08 01:44:11;;;;;;;7.88;5.38;;;;;;;;;;5081995;28;20047;-74
2022/08/08 01:46:45;;;;;;;8.13;5.97;;;;;;;;;;5107175;28;20040;-75
2022/08/08 01:49:20;;;;;;;7.40;5.03;;;;;;;;;;5087769;28;20504;-77
2022/08/08 01:51:56;;;;;;;6.28;4.30;;;;;;;;;;5112606;28;20055;-74
2022/08/08 01:54:22;;;;;;;6.72;4.80;;;;;;;;;;5114656;28;20055;-74
2022/08/08 01:57:01;;;;;;;7.35;5.20;;;;;;;;;;5094865;28;20051;-75
2022/08/08 02:00:02;;;;;;;7.55;3.83;;;;;;;;;;5107255;28;20094;-75
2022/08/08 02:02:40;;;;;;;5.72;4.20;;;;;;;;;;5033572;28;20096;-74
2022/08/08 02:05:09;;;;;;;6.63;5.05;;;;;;;;;;5031885;28;20135;-75
2022/08/08 02:07:50;;;;;;;7.22;5.78;;;;;;;;;;5035079;28;20056;-75
2022/08/08 02:10:22;;;;;;;7.05;5.20;;;;;;;;;;5031830;28;20041;-74
2022/08/08 02:12:59;;;;;;;7.53;4.90;;;;;;;;;;5000684;28;20072;-75
2022/08/08 02:15:46;;;;;;;7.80;4.85;;;;;;;;;;5033075;28;20033;-75
2022/08/08 02:18:15;;;;;;;6.07;4.35;;;;;;;;;;5027775;28;20144;-74
2022/08/08 02:23:55;;;;;;;5.38;3.10;;;;;;;;;;5017623;28;20057;-75
2022/08/08 02:26:26;;;;;;;5.88;2.95;;;;;;;;;;5030795;28;20520;-75
2022/08/08 02:28:52;;;;;;;;;;;;;;;;;;5030734;28;20044;-75
2022/08/08 02:31:50;;;;;;;5.43;3.28;;;;;;;;;;5031331;28;20358;-76
2022/08/08 02:34:20;;;;;;;5.30;2.75;;;;;;;;;;4992660;28;20817;-75
2022/08/08 02:37:05;;;;;;;5.85;2.97;;;;;;;;;;5027367;28;20055;-74
2022/08/08 02:39:50;;;;;;;5.40;3.67;;;;;;;;;;5051045;28;20885;-74
2022/08/08 02:42:43;;;;;;;7.15;3.80;;;;;;;;;;5052431;28;20505;-75
2022/08/08 02:45:28;;;;;;;6.35;4.38;;;;;;;;;;5049525;28;20143;-74
2022/08/08 02:47:54;;;;;;;7.75;4.90;;;;;;;;;;5050932;28;20048;-74
2022/08/08 02:50:38;;;;;;;8.20;4.32;;;;;;;;;;5052095;28;20057;-74
2022/08/08 02:53:11;;;;;;;8.48;3.95;;;;;;;;;;5052767;28;20080;-74
2022/08/08 02:56:00;;;;;;;6.28;3.40;;;;;;;;;;5049932;28;20053;-75
2022/08/08 02:58:34;;;;;;;5.72;4.13;;;;;;;;;;5047295;28;20052;-75
2022/08/08 03:01:19;;;;;;;7.32;4.70;;;;;;;;;;5047929;28;20489;-74
2022/08/08 03:03:48;;;;;;;7.47;5.45;;;;;;;;;;5047090;28;20083;-75
2022/08/08 03:06:44;;;;;;;8.18;5.85;;;;;;;;;;5053020;28;20048;-75
2022/08/08 03:09:13;;;;;;;8.40;5.35;;;;;;;;;;5062248;28;20051;-75
2022/08/08 03:11:59;;;;;;;6.95;4.97;;;;;;;;;;5100123;28;20040;-75
2022/08/08 03:14:45;;;;;;;7.55;5.57;;;;;;;;;;5106918;28;20064;-75
2022/08/08 03:17:20;;;;;;;8.18;5.47;;;;;;;;;;5102761;28;20039;-75
2022/08/08 03:19:46;;;;;;;8.25;5.40;;;;;;;;;;5112073;28;20039;-76
2022/08/08 03:22:11;;;;;;;6.82;4.35;;;;;;;;;;5109691;28;20546;-74
2022/08/08 03:24:38;;;;;;;6.82;4.95;;;;;;;;;;5108505;28;20118;-75
2022/08/08 03:27:16;;;;;;;7.75;4.70;;;;;;;;;;5098598;28;20036;-76
2022/08/08 03:29:45;;;;;;;7.78;5.05;;;;;;;;;;5100042;28;20103;-75
2022/08/08 03:34:56;;;;;;;10.27;6.45;;;;;;;;;;5103623;28;20039;-75
2022/08/08 03:37:23;;;;;;;8.55;5.38;;;;;;;;;;5086174;28;20048;-75
2022/08/08 03:39:49;;;;;;;7.82;5.15;;;;;;;;;;5103307;28;20074;-75
2022/08/08 03:42:15;;;;;;;8.27;5.30;;;;;;;;;;5114199;28;20039;-74
2022/08/08 03:44:42;;;;;;;7.82;4.85;;;;;;;;;;5069664;28;20483;-76
2022/08/08 03:47:08;;;;;;;8.55;4.80;;;;;;;;;;5099894;28;20104;-75
2022/08/08 03:49:34;;;;;;;6.28;4.88;;;;;;;;;;5113130;28;20055;-75
2022/08/08 03:52:00;;;;;;;10.85;4.00;;;;;;;;;;5090480;28;20078;-75
2022/08/08 03:54:26;;;;;;;7.20;3.95;;;;;;;;;;5096383;28;20498;-76
2022/08/08 03:56:52;;;;;;;5.13;3.40;;;;;;;;;;5109986;28;20338;-74
2022/08/08 03:59:18;;;;;;;4.53;2.90;;;;;;;;;;5102974;28;20476;-75
2022/08/08 04:01:45;;;;;;;5.38;2.80;;;;;;;;;;5083083;28;20074;-75
2022/08/08 04:04:11;;;;;;;5.63;2.90;;;;;;;;;;5104927;28;20084;-75
2022/08/08 04:06:38;;;;;;;5.18;3.08;;;;;;;;;;5114991;28;20093;-76
2022/08/08 04:09:05;;;;;;;5.45;3.20;;;;;;;;;;5112514;28;20047;-74
2022/08/08 04:11:31;;;;;;;4.72;3.10;;;;;;;;;;5098500;28;20040;-76
2022/08/08 04:13:57;;;;;;;5.15;2.85;;;;;;;;;;5097354;28;20152;-76
2022/08/08 04:16:24;;;;;;;7.50;3.00;;;;;;;;;;5096613;28;20048;-75
2022/08/08 04:18:50;;;;;;;6.50;3.33;;;;;;;;;;5103165;28;20096;-75
2022/08/08 04:21:16;;;;;;;6.80;3.47;;;;;;;;;;5097784;28;20043;-76
2022/08/08 04:23:42;;;;;;;4.68;3.13;;;;;;;;;;5084728;28;20130;-74
2022/08/08 04:26:08;;;;;;;5.68;3.55;;;;;;;;;;5099726;28;20087;-76
2022/08/08 04:28:34;;;;;;;8.57;4.20;;;;;;;;;;5113177;28;20052;-75
2022/08/08 04:31:01;;;;;;;5.45;3.65;;;;;;;;;;5100431;28;20047;-75
2022/08/08 04:33:27;;;;;;;12.25;4.57;;;;;;;;;;5103361;28;20083;-75
2022/08/08 04:35:53;;;;;;;7.95;4.65;;;;;;;;;;5099586;28;20048;-74
2022/08/08 04:38:19;;;;;;;7.50;4.18;;;;;;;;;;5113266;28;20405;-75
2022/08/08 04:40:45;;;;;;;6.70;4.03;;;;;;;;;;5115009;28;20664;-74
2022/08/08 04:43:11;;;;;;;6.72;4.80;;;;;;;;;;5080663;28;20040;-76
2022/08/08 04:45:37;;;;;;;8.60;5.03;;;;;;;;;;5099323;28;20091;-75
2022/08/08 04:48:04;;;;;;;7.50;4.60;;;;;;;;;;5065812;28;20052;-75
2022/08/08 04:50:30;;;;;;;7.72;5.50;;;;;;;;;;5097617;28;20051;-75
2022/08/08 04:52:56;;;;;;;8.82;5.47;;;;;;;;;;5117874;28;20054;-74
2022/08/08 04:55:22;;;;;;;9.40;5.05;;;;;;;;;;5100153;28;20097;-76
2022/08/08 04:57:48;;;;;;;8.82;4.72;;;;;;;;;;5098220;28;20036;-75
2022/08/08 05:00:15;;;;;;;7.10;4.57;;;;;;;;;;5093743;28;20426;-75
2022/08/08 05:02:41;;;;;;;6.55;4.10;;;;;;;;;;5101366;28;20074;-76
2022/08/08 05:05:07;;;;;;;7.43;3.97;;;;;;;;;;5114338;28;20043;-75
2022/08/08 05:07:33;;;;;;;6.80;4.45;;;;;;;;;;5119189;28;20060;-75
2022/08/08 05:09:59;;;;;;;8.90;4.63;;;;;;;;;;5106405;28;20051;-74
2022/08/08 05:12:25;;;;;;;7.68;5.03;;;;;;;;;;5100089;28;20044;-74
2022/08/08 05:14:51;;;;;;;9.95;5.90;;;;;;;;;;5115987;28;20111;-75
2022/08/08 05:17:17;;;;;;;7.32;5.57;;;;;;;;;;5109869;28;20949;-75
2022/08/08 05:19:43;;;;;;;7.80;4.57;;;;;;;;;;5109720;28;20035;-76
2022/08/08 05:22:10;;;;;;;10.23;5.38;;;;;;;;;;5088263;28;20112;-75
2022/08/08 05:24:36;;;;;;;10.25;5.05;;;;;;;;;;5101625;28;20123;-76
2022/08/08 05:27:03;;;;;;;9.38;4.40;;;;;;;;;;5112786;28;20409;-75
2022/08/08 05:29:29;;;;;;;7.97;4.30;;;;;;;;;;5100675;28;20043;-76
2022/08/08 05:31:55;;;;;;;7.05;4.03;;;;;;;;;;5084365;28;20055;-76
2022/08/08 05:34:57;;;;;;;10.48;4.18;;;;;;;;;;5104660;28;20043;-75
2022/08/08 05:37:24;;;;;;;9.00;4.43;;;;;;;;;;5013933;28;20077;-76
2022/08/08 05:39:51;;;;;;;10.43;4.75;;;;;;;;;;5016033;28;20046;-75
2022/08/08 05:42:17;;;;;;;10.27;4.38;;;;;;;;;;5015121;28;20073;-75
2022/08/08 05:44:48;;;;;;;8.55;3.78;;;;;;;;;;5006895;28;20056;-76
2022/08/08 05:47:14;;;;;;;9.80;3.78;;;;;;;;;;5011004;28;20045;-75
2022/08/08 05:49:45;;;;;;;7.32;3.90;;;;;;;;;;5014260;28;20057;-76
2022/08/08 05:52:11;;;;;;;8.15;4.13;;;;;;;;;;4999366;28;20057;-74
2022/08/08 05:54:37;;;;;;;8.98;4.35;;;;;;;;;;5000473;28;20051;-75
2022/08/08 05:57:05;;;;;;;10.85;4.00;;;;;;;;;;5010358;28;20093;-76
2022/08/08 05:59:32;;;;;;;10.90;4.10;;;;;;;;;;5014456;28;20664;-75
2022/08/08 06:01:58;;;;;;;11.60;4.10;;;;;;;;;;5010010;28;20050;-75
2022/08/08 06:04:26;;;;;;;9.70;3.90;;;;;;;;;;4998036;28;20057;-74
2022/08/08 06:06:56;;;;;;;11.05;3.63;;;;;;;;;;4983936;28;20460;-75
2022/08/08 06:09:24;;;;;;;11.73;3.33;;;;;;;;;;4995790;28;20050;-76
2022/08/08 06:11:51;;;;;;;8.50;3.35;;;;;;;;;;5078710;28;20048;-74
2022/08/08 06:14:17;;;;;;;13.95;3.45;;;;;;;;;;5086528;28;20443;-74
2022/08/08 06:16:43;;;;;;;9.90;3.78;;;;;;;;;;5103699;28;20478;-75
2022/08/08 06:19:10;;;;;;;10.93;4.20;;;;;;;;;;5092104;28;20036;-75
2022/08/08 06:21:37;;;;;;;9.50;3.72;;;;;;;;;;5083530;28;20047;-73
2022/08/08 06:24:05;;;;;;;9.73;3.83;;;;;;;;;;5106149;28;20073;-75
2022/08/08 06:26:36;;;;;;;8.10;3.45;;;;;;;;;;5101095;28;20090;-75
2022/08/08 06:29:04;;;;;;;7.65;4.00;;;;;;;;;;5111009;28;20051;-74
2022/08/08 06:31:34;;;;;;;7.85;3.90;;;;;;;;;;5098153;28;20056;-74
2022/08/08 06:34:17;;;;;;;8.10;4.33;;;;;;;;;;5102621;28;20052;-74
2022/08/08 06:36:44;;;;;;;7.63;4.35;;;;;;;;;;5079982;28;20043;-74
2022/08/08 06:39:11;;;;;;;8.98;4.32;;;;;;;;;;5097322;28;20047;-74
2022/08/08 06:41:41;;;;;;;9.15;4.50;;;;;;;;;;5095701;28;20131;-74
2022/08/08 06:44:10;;;;;;;10.50;4.70;;;;;;;;;;5098286;28;20048;-74
2022/08/08 06:46:37;;;;;;;11.23;4.75;;;;;;;;;;5105825;28;20546;-75
2022/08/08 06:49:03;;;;;;;15.63;4.82;;;;;;;;;;5091690;28;20043;-74
2022/08/08 06:51:30;;;;;;;15.55;5.07;;;;;;;;;;5104510;28;20032;-74
2022/08/08 06:53:56;;;;;;;12.30;4.78;;;;;;;;;;5120720;28;20046;-73
2022/08/08 06:56:23;;;;;;;11.05;5.15;;;;;;;;;;5120650;28;20044;-73
2022/08/08 06:58:49;;;;;;;11.13;4.25;;;;;;;;;;5128635;28;20050;-73
2022/08/08 07:01:16;;;;;;;6.60;3.63;;;;;;;;;;5124433;28;20044;-74
2022/08/08 07:03:42;;;;;;;7.38;3.10;;;;;;;;;;5118322;28;20176;-73
2022/08/08 07:06:10;;;;;;;10.02;3.15;;;;;;;;;;5113241;28;20052;-73
2022/08/08 07:08:44;;;;;;;8.00;2.70;;;;;;;;;;5117158;28;20039;-73
2022/08/08 07:11:11;;;;;;;9.65;2.65;;;;;;;;;;5112387;28;20404;-73
2022/08/08 07:13:38;;;;;;;7.22;2.10;;;;;;;;;;5112848;28;20040;-73
2022/08/08 07:16:14;;;;;;;8.98;2.50;;;;;;;;;;5124874;28;20032;-74
2022/08/08 07:18:52;;;;;;;9.82;2.17;;;;;;;;;;5131438;28;20048;-73
2022/08/08 07:21:22;;;;;;;9.00;2.05;;;;;;;;;;5128862;28;20047;-74
2022/08/08 07:23:53;;;;;;;7.82;1.90;;;;;;;;;;5111291;28;20044;-74
2022/08/08 07:26:21;;;;;;;6.68;1.65;;;;;;;;;;5073999;28;20489;-72
2022/08/08 07:28:48;;;;;;;6.65;1.73;;;;;;;;;;5105544;28;20075;-73
2022/08/08 07:31:14;;;;;;;6.57;1.65;;;;;;;;;;5112330;28;20023;-73
2022/08/08 07:33:41;;;;;;;7.53;1.80;;;;;;;;;;5110507;28;20047;-75
2022/08/08 07:36:08;;;;;;;7.97;1.60;;;;;;;;;;5108321;28;20040;-74
2022/08/08 07:38:36;;;;;;;6.55;1.40;;;;;;;;;;5117031;28;20044;-73
2022/08/08 07:41:02;;;;;;;6.78;1.48;;;;;;;;;;5134165;28;20043;-72
2022/08/08 07:43:31;;;;;;;6.30;1.63;;;;;;;;;;5131884;28;20039;-73
2022/08/08 07:45:57;;;;;;;5.90;1.60;;;;;;;;;;5111390;28;20068;-72
2022/08/08 07:48:24;;;;;;;6.60;1.40;;;;;;;;;;5104731;28;20044;-73
2022/08/08 07:50:52;;;;;;;9.57;1.60;;;;;;;;;;5127236;28;20126;-74
2022/08/08 07:53:20;;;;;;;6.90;1.88;;;;;;;;;;5131110;28;20069;-74
2022/08/08 07:55:47;;;;;;;8.05;1.63;;;;;;;;;;5117366;28;20074;-73
2022/08/08 07:58:20;;;;;;;7.15;1.73;;;;;;;;;;5106111;28;20095;-74
2022/08/08 08:00:50;;;;;;;10.05;2.03;;;;;;;;;;5128844;28;20082;-77
2022/08/08 08:03:31;;;;;;;9.18;1.90;;;;;;;;;;5119354;28;20100;-73
2022/08/08 08:05:57;;;;;;;;;;;;;;;;;;5111161;28;20114;-74
2022/08/08 08:08:31;;;;;;;26.48;2.72;;;;;;;;;;5129950;28;19919;-74
2022/08/08 08:10:57;;;;;;;7.03;1.75;;;;;;;;;;5126791;28;20054;-75
2022/08/08 08:13:36;;;;;;;6.68;1.42;;;;;;;;;;5118859;28;20090;-74
2022/08/08 08:16:04;;;;;;;8.80;1.65;;;;;;;;;;5102379;28;20040;-73
2022/08/08 08:18:53;;;;;;;7.38;1.50;;;;;;;;;;5080519;28;20051;-74
2022/08/08 08:21:20;;;;;;;7.53;1.70;;;;;;;;;;5076684;28;20044;-72
2022/08/08 08:23:46;;;;;;;8.00;1.58;;;;;;;;;;5101988;28;20063;-74
2022/08/08 08:26:12;;;;;;;8.52;1.60;;;;;;;;;;5099075;28;20078;-74
2022/08/08 08:28:39;;;;;;;5.15;1.20;;;;;;;;;;5098945;28;20391;-74
2022/08/08 08:31:07;;;;;;;6.53;1.60;;;;;;;;;;5084906;28;20490;-73
2022/08/08 08:33:33;;;;;;;7.05;1.45;;;;;;;;;;5109637;28;20044;-73
2022/08/08 08:36:00;;;;;;;7.03;1.52;;;;;;;;;;5110364;28;20124;-74
2022/08/08 08:38:26;;;;;;;8.88;1.40;;;;;;;;;;5107647;28;20043;-74
2022/08/08 08:40:52;;;;;;;8.20;1.45;;;;;;;;;;5104446;28;20044;-74
2022/08/08 08:43:19;;;;;;;6.15;1.55;;;;;;;;;;5119032;28;20505;-73
2022/08/08 08:45:46;;;;;;;7.18;1.60;;;;;;;;;;5103264;28;20046;-75
2022/08/08 08:48:13;;;;;;;6.88;1.50;;;;;;;;;;5101681;28;20055;-74
2022/08/08 08:50:41;;;;;;;8.40;1.83;;;;;;;;;;5106744;28;20040;-75
2022/08/08 08:53:08;;;;;;;9.68;1.88;;;;;;;;;;5101148;28;20055;-73
2022/08/08 08:55:36;;;;;;;8.73;1.60;;;;;;;;;;5115341;28;20092;-74
2022/08/08 08:58:04;;;;;;;10.13;1.58;;;;;;;;;;5121568;28;20486;-75
2022/08/08 09:00:30;;;;;;;5.50;1.10;;;;;;;;;;5083394;28;20402;-75
2022/08/08 09:02:58;;;;;;;5.75;1.23;;;;;;;;;;5115943;28;20040;-74
2022/08/08 09:05:25;;;;;;;7.32;1.42;;;;;;;;;;5103843;28;20129;-74
2022/08/08 09:07:52;;;;;;;8.15;1.50;;;;;;;;;;5110436;28;20075;-74
2022/08/08 09:10:19;;;;;;;7.40;1.27;;;;;;;;;;5103986;28;20068;-73
2022/08/08 09:12:46;;;;;;;7.15;1.55;;;;;;;;;;5123022;28;20043;-73
2022/08/08 09:15:13;;;;;;;6.82;1.20;;;;;;;;;;5125873;28;20074;-73
2022/08/08 09:17:39;;;;;;;5.70;1.42;;;;;;;;;;5108211;28;20060;-73
2022/08/08 09:20:06;;;;;;;7.15;1.15;;;;;;;;;;5107025;28;20406;-74
2022/08/08 09:22:33;;;;;;;6.75;1.35;;;;;;;;;;5122275;28;20048;-74
2022/08/08 09:24:59;;;;;;;5.90;1.40;;;;;;;;;;5109621;28;20083;-73
2022/08/08 09:27:26;;;;;;;6.55;1.30;;;;;;;;;;5113700;28;20052;-73
2022/08/08 09:30:03;;;;;;;5.35;1.33;;;;;;;;;;5106301;28;20413;-74
2022/08/08 09:32:29;;;;;;;7.38;1.27;;;;;;;;;;5110096;28;20069;-72
2022/08/08 09:34:57;;;;;;;6.47;1.38;;;;;;;;;;5104734;28;20032;-74
2022/08/08 09:37:28;;;;;;;5.22;1.58;;;;;;;;;;5102661;28;20104;-74
2022/08/08 09:39:59;;;;;;;7.03;1.40;;;;;;;;;;5113252;28;20357;-74
2022/08/08 09:42:32;;;;;;;6.70;1.40;;;;;;;;;;5115738;28;20048;-74
2022/08/08 09:45:08;;;;;;;6.68;1.50;;;;;;;;;;5110477;28;20044;-74
2022/08/08 09:47:38;;;;;;;6.32;1.35;;;;;;;;;;5108561;28;20149;-74
2022/08/08 09:50:07;;;;;;;9.02;1.50;;;;;;;;;;5090322;28;20410;-73
2022/08/08 09:52:34;;;;;;;8.90;1.60;;;;;;;;;;5112469;28;20040;-73
2022/08/08 09:55:01;;;;;;;5.82;1.25;;;;;;;;;;5114156;28;20088;-73
2022/08/08 09:57:31;;;;;;;7.20;1.45;;;;;;;;;;5115579;28;20074;-73
2022/08/08 09:59:59;;;;;;;8.43;1.50;;;;;;;;;;5134393;28;20031;-73
2022/08/08 10:02:32;;;;;;;6.40;1.35;;;;;;;;;;5108273;28;20048;-75
2022/08/08 10:05:26;;;;;;;4.47;1.13;;;;;;;;;;5119858;28;20152;-74
2022/08/08 10:07:51;;;;;;;6.50;1.23;;;;;;;;;;5104023;28;20087;-75
2022/08/08 10:10:24;;;;;;;6.22;1.10;;;;;;;;;;5103101;28;20048;-75
2022/08/08 10:12:50;;;;;;;4.63;1.10;;;;;;;;;;5108361;28;20044;-76
2022/08/08 10:15:17;;;;;;;6.93;1.40;;;;;;;;;;5110925;28;20036;-75
2022/08/08 10:17:50;;;;;;;6.38;1.23;;;;;;;;;;5102161;28;20410;-74
2022/08/08 10:20:17;;;;;;;5.18;1.38;;;;;;;;;;5099230;28;20119;-75
2022/08/08 10:23:05;;;;;;;7.93;1.58;;;;;;;;;;5129187;28;20039;-74
2022/08/08 10:25:33;;;;;;;6.75;1.33;;;;;;;;;;5132284;28;20078;-73
2022/08/08 10:28:00;;;;;;;6.85;1.30;;;;;;;;;;5128890;28;20040;-74
2022/08/08 10:30:26;;;;;;;7.30;1.45;;;;;;;;;;5119418;28;20066;-74
2022/08/08 10:32:53;;;;;;;5.53;1.25;;;;;;;;;;5124237;28;20058;-72
2022/08/08 10:35:22;;;;;;;7.07;1.30;;;;;;;;;;5127092;28;20043;-73
2022/08/08 10:37:52;;;;;;;6.50;1.48;;;;;;;;;;5096307;28;20511;-73
2022/08/08 10:40:19;;;;;;;6.10;1.35;;;;;;;;;;5120190;28;20040;-73
2022/08/08 10:42:46;;;;;;;6.82;1.20;;;;;;;;;;5105733;28;20051;-74
2022/08/08 10:45:12;;;;;;;8.30;1.17;;;;;;;;;;5127568;28;20040;-74
2022/08/08 10:47:39;;;;;;;6.43;1.40;;;;;;;;;;5106578;28;20048;-73
2022/08/08 10:50:06;;;;;;;4.00;1.00;;;;;;;;;;5107702;28;20040;-73
2022/08/08 10:52:34;;;;;;;5.32;1.33;;;;;;;;;;5122758;28;21606;-74
2022/08/08 10:55:00;;;;;;;4.65;1.20;;;;;;;;;;5105025;28;20044;-74
2022/08/08 10:57:27;;;;;;;8.52;1.50;;;;;;;;;;5120634;28;20059;-74
2022/08/08 10:59:53;;;;;;;7.07;1.42;;;;;;;;;;5116495;28;20070;-73
2022/08/08 11:02:23;;;;;;;5.82;1.13;;;;;;;;;;5118668;28;20044;-73
2022/08/08 11:04:50;;;;;;;5.05;1.10;;;;;;;;;;5120399;28;20040;-73
2022/08/08 11:07:30;;;;;;;6.05;1.50;;;;;;;;;;5112976;28;20104;-74
2022/08/08 11:10:00;;;;;;;4.50;1.08;;;;;;;;;;5110570;28;20092;-74
2022/08/08 11:12:26;;;;;;;5.90;1.37;;;;;;;;;;5111220;28;20040;-73
2022/08/08 11:14:55;;;;;;;6.38;1.35;;;;;;;;;;5087351;28;20040;-75
2022/08/08 11:17:23;;;;;;;6.32;1.10;;;;;;;;;;5112484;28;20044;-73
2022/08/08 11:19:51;;;;;;;4.90;1.10;;;;;;;;;;5112737;28;20093;-74
2022/08/08 11:22:19;;;;;;;4.20;1.00;;;;;;;;;;5106953;28;20024;-73
2022/08/08 11:24:46;;;;;;;4.93;0.98;;;;;;;;;;5088382;28;20042;-74
2022/08/08 11:27:13;;;;;;;4.85;0.90;;;;;;;;;;5110699;28;20047;-74
2022/08/08 11:29:40;;;;;;;5.97;1.02;;;;;;;;;;5087255;28;20040;-74
2022/08/08 11:32:07;;;;;;;4.75;0.95;;;;;;;;;;5066163;28;20071;-74
2022/08/08 11:34:34;;;;;;;3.22;0.88;;;;;;;;;;5102396;28;20103;-74
2022/08/08 11:37:01;;;;;;;5.47;1.02;;;;;;;;;;5112997;28;20047;-74
2022/08/08 11:39:28;;;;;;;4.70;1.10;;;;;;;;;;5121986;28;20122;-75
2022/08/08 11:41:55;;;;;;;5.53;1.25;;;;;;;;;;5120925;28;20051;-73
2022/08/08 11:44:22;;;;;;;5.63;1.30;;;;;;;;;;5125972;28;20043;-73
2022/08/08 11:46:48;;;;;;;5.00;1.00;;;;;;;;;;5133305;28;20047;-74
2022/08/08 11:49:14;;;;;;;4.47;1.10;;;;;;;;;;5124945;28;20057;-74
2022/08/08 11:51:41;;;;;;;4.03;1.10;;;;;;;;;;5115691;28;20032;-74
2022/08/08 11:54:07;;;;;;;4.80;1.27;;;;;;;;;;5100532;28;20485;-75
2022/08/08 11:56:34;;;;;;;5.00;0.88;;;;;;;;;;5105767;28;20040;-75
2022/08/08 11:59:07;;;;;;;5.50;0.90;;;;;;;;;;5112479;28;20469;-74
2022/08/08 12:01:34;;;;;;;4.40;1.10;;;;;;;;;;5102345;28;20040;-75
2022/08/08 12:04:00;;;;;;;3.88;0.70;;;;;;;;;;5096690;28;20032;-74
2022/08/08 12:06:26;;;;;;;4.43;0.85;;;;;;;;;;5112596;28;20046;-74
2022/08/08 12:08:52;;;;;;;4.85;0.95;;;;;;;;;;5110350;28;20517;-74
2022/08/08 12:11:19;;;;;;;4.18;1.00;;;;;;;;;;5112954;28;20048;-74
2022/08/08 12:13:48;;;;;;;4.25;1.00;;;;;;;;;;5126285;27;20031;-74
2022/08/08 12:16:18;;;;;;;3.60;0.85;;;;;;;;;;5111235;28;20105;-75
2022/08/08 12:18:44;;;;;;;5.53;0.97;;;;;;;;;;5109547;28;20048;-73
2022/08/08 12:21:21;;;;;;;5.07;1.10;;;;;;;;;;5113191;28;20316;-73
2022/08/08 12:23:47;;;;;;;3.38;0.80;;;;;;;;;;5120433;28;20043;-75
2022/08/08 12:26:14;;;;;;;3.78;0.82;;;;;;;;;;5119677;28;20044;-73
2022/08/08 12:28:41;;;;;;;4.43;1.00;;;;;;;;;;5109622;28;20072;-73
2022/08/08 12:31:08;;;;;;;5.25;1.10;;;;;;;;;;5112592;28;20052;-74
2022/08/08 12:33:35;;;;;;;4.28;0.98;;;;;;;;;;5105981;28;20490;-74
2022/08/08 12:36:19;;;;;;;4.00;0.88;;;;;;;;;;5103114;28;20055;-74
2022/08/08 12:38:52;;;;;;;3.75;0.80;;;;;;;;;;5130460;27;20047;-73
2022/08/08 12:41:24;;;;;;;4.82;0.90;;;;;;;;;;5115940;28;20071;-74
2022/08/08 12:43:51;;;;;;;3.80;0.90;;;;;;;;;;5105751;28;20100;-75
2022/08/08 12:46:17;;;;;;;4.18;0.88;;;;;;;;;;5067841;28;20043;-76
2022/08/08 12:48:57;;;;;;;3.20;0.70;;;;;;;;;;5100108;28;20036;-76
2022/08/08 12:51:23;;;;;;;4.88;1.00;;;;;;;;;;5112314;28;20043;-75
2022/08/08 12:53:56;;;;;;;3.53;0.82;;;;;;;;;;5115352;28;20913;-74
2022/08/08 12:56:31;;;;;;;3.42;0.90;;;;;;;;;;5079879;28;20489;-76
2022/08/08 12:58:58;;;;;;;6.68;1.23;;;;;;;;;;5097649;28;20442;-75
2022/08/08 13:01:34;;;;;;;2.72;0.68;;;;;;;;;;5097054;28;20040;-75
2022/08/08 13:04:00;;;;;;;3.83;0.88;;;;;;;;;;5097393;28;20036;-75
2022/08/08 13:06:26;;;;;;;4.47;1.00;;;;;;;;;;5096369;28;20040;-76
2022/08/08 13:08:52;;;;;;;3.15;0.80;;;;;;;;;;5103796;28;20044;-74
2022/08/08 13:11:26;;;;;;;3.05;0.90;;;;;;;;;;5096655;28;20040;-75
2022/08/08 13:13:59;;;;;;;5.25;1.00;;;;;;;;;;5097600;28;20097;-75
2022/08/08 13:16:25;;;;;;;4.15;1.00;;;;;;;;;;5097849;28;20179;-75
2022/08/08 13:18:51;;;;;;;3.47;0.80;;;;;;;;;;5097772;28;20042;-75
2022/08/08 13:21:17;;;;;;;5.00;1.48;;;;;;;;;;5096768;28;20051;-76
2022/08/08 13:23:43;;;;;;;3.17;0.65;;;;;;;;;;5097198;28;20379;-76
2022/08/08 13:26:09;;;;;;;3.67;1.00;;;;;;;;;;5118362;28;20039;-75
2022/08/08 13:28:35;;;;;;;4.07;0.80;;;;;;;;;;5095499;28;20040;-76
2022/08/08 13:31:02;;;;;;;7.00;1.00;;;;;;;;;;5097288;28;20076;-75
2022/08/08 13:33:29;;;;;;;4.70;1.02;;;;;;;;;;5097045;28;20040;-75
2022/08/08 13:35:55;;;;;;;4.88;1.10;;;;;;;;;;5104966;28;20486;-76
2022/08/08 13:38:21;;;;;;;6.28;1.17;;;;;;;;;;5118200;28;20079;-75
2022/08/08 13:40:47;;;;;;;3.97;0.98;;;;;;;;;;5113179;28;20050;-77
2022/08/08 13:43:14;;;;;;;4.72;1.00;;;;;;;;;;5135829;28;20048;-75
2022/08/08 13:45:40;;;;;;;4.60;1.10;;;;;;;;;;5127500;28;20082;-77
2022/08/08 13:48:13;;;;;;;3.42;0.90;;;;;;;;;;5131049;28;20027;-76
2022/08/08 13:50:46;;;;;;;4.15;0.93;;;;;;;;;;5124878;28;20071;-76
2022/08/08 13:53:12;;;;;;;4.65;1.10;;;;;;;;;;5089665;28;20123;-75
2022/08/08 13:55:39;;;;;;;5.18;1.00;;;;;;;;;;5106443;28;20522;-75
2022/08/08 13:58:05;;;;;;;4.45;0.90;;;;;;;;;;5080405;28;20040;-75
2022/08/08 14:00:38;;;;;;;4.63;1.35;;;;;;;;;;5124531;27;20044;-77
2022/08/08 14:03:04;;;;;;;5.20;1.40;;;;;;;;;;5138055;27;20027;-75
2022/08/08 14:05:32;;;;;;;5.95;1.23;;;;;;;;;;5136544;27;20047;-76
2022/08/08 14:07:59;;;;;;;6.82;1.20;;;;;;;;;;5126803;28;20058;-75
2022/08/08 14:10:25;;;;;;;4.75;1.00;;;;;;;;;;5117267;28;20602;-75
2022/08/08 14:12:53;;;;;;;4.55;1.02;;;;;;;;;;5111425;28;20074;-76
2022/08/08 14:15:26;;;;;;;4.85;1.15;;;;;;;;;;5113504;28;20083;-75
2022/08/08 14:17:55;;;;;;;5.35;1.20;;;;;;;;;;5115422;28;20400;-75
2022/08/08 14:20:29;;;;;;;6.88;1.08;;;;;;;;;;5125454;28;20016;-76
2022/08/08 14:22:55;;;;;;;5.25;1.13;;;;;;;;;;5120422;28;20047;-75
2022/08/08 14:25:21;;;;;;;4.80;1.17;;;;;;;;;;5117640;28;20043;-77
2022/08/08 14:27:47;;;;;;;6.60;1.20;;;;;;;;;;5117583;28;20035;-75
2022/08/08 14:30:17;;;;;;;6.72;1.60;;;;;;;;;;5119717;28;20043;-75
2022/08/08 14:32:46;;;;;;;6.07;1.10;;;;;;;;;;5123522;28;20060;-76
2022/08/08 14:35:12;;;;;;;6.53;1.15;;;;;;;;;;5099822;28;20032;-76
2022/08/08 14:37:42;;;;;;;4.10;1.10;;;;;;;;;;5102766;28;20089;-75
2022/08/08 14:40:09;;;;;;;3.70;1.00;;;;;;;;;;5127340;27;20028;-76
2022/08/08 14:42:36;;;;;;;5.32;1.00;;;;;;;;;;5137998;27;20019;-75
2022/08/08 14:45:04;;;;;;;4.60;0.93;;;;;;;;;;5111801;28;20032;-76
2022/08/08 14:47:30;;;;;;;4.10;0.93;;;;;;;;;;5123786;28;20081;-76
2022/08/08 14:50:05;;;;;;;4.57;0.90;;;;;;;;;;5118461;27;20066;-75
2022/08/08 14:52:48;;;;;;;7.55;1.25;;;;;;;;;;5122798;28;20091;-75
2022/08/08 14:55:15;;;;;;;3.65;0.90;;;;;;;;;;5114686;28;20063;-75
2022/08/08 14:57:41;;;;;;;5.03;1.15;;;;;;;;;;5132322;27;20071;-76
2022/08/08 15:00:08;;;;;;;5.13;1.00;;;;;;;;;;5122685;27;20054;-76
2022/08/08 15:02:34;;;;;;;5.57;0.82;;;;;;;;;;5119647;27;20027;-76
2022/08/08 15:05:00;;;;;;;3.53;0.95;;;;;;;;;;5136537;27;20044;-75